createdAt,value
2023-01-19T00:00:28.576Z,8.82
2023-01-19T00:02:55.153Z,8.02
2023-01-19T00:05:21.968Z,9.23
2023-01-19T00:07:48.448Z,9.45
2023-01-19T00:10:15.408Z,8.88
2023-01-19T00:12:41.954Z,9.27
2023-01-19T00:15:09.059Z,8.93
2023-01-19T00:17:35.662Z,9.15
2023-01-19T00:20:02.214Z,9.27
2023-01-19T00:22:28.653Z,8.43
2023-01-19T00:24:55.129Z,9.32
2023-01-19T00:27:21.612Z,9.25
2023-01-19T00:29:48.098Z,9.05
2023-01-19T00:32:14.673Z,9.57
2023-01-19T00:34:49.650Z,9.00
2023-01-19T00:37:17.388Z,8.95
2023-01-19T00:39:43.973Z,9.05
2023-01-19T00:42:42.693Z,8.73
2023-01-19T00:45:11.152Z,8.70
2023-01-19T00:47:39.275Z,8.77
2023-01-19T00:50:07.421Z,8.85
2023-01-19T00:52:33.937Z,9.25
2023-01-19T00:55:00.412Z,9.40
2023-01-19T00:57:27.542Z,9.80
2023-01-19T00:59:54.071Z,8.85
2023-01-19T01:02:20.829Z,10.35
2023-01-19T01:04:47.387Z,10.30
2023-01-19T01:07:13.835Z,9.10
2023-01-19T01:09:40.278Z,10.25
2023-01-19T01:12:06.888Z,9.77
2023-01-19T01:14:33.447Z,10.00
2023-01-19T01:17:00.649Z,10.50
2023-01-19T01:19:27.221Z,11.35
2023-01-19T01:21:53.736Z,10.98
2023-01-19T01:24:20.767Z,10.15
2023-01-19T01:26:47.608Z,11.35
2023-01-19T01:29:14.091Z,11.93
2023-01-19T01:31:40.817Z,10.75
2023-01-19T01:34:07.368Z,11.05
2023-01-19T01:36:33.907Z,12.90
2023-01-19T01:39:00.449Z,11.63
2023-01-19T01:41:27.525Z,12.20
2023-01-19T01:43:58.821Z,11.48
2023-01-19T01:46:27.634Z,11.55
2023-01-19T01:49:09.948Z,11.05
2023-01-19T01:51:46.187Z,12.07
2023-01-19T01:54:30.014Z,10.68
2023-01-19T01:57:02.688Z,11.75
2023-01-19T01:59:39.341Z,12.40
2023-01-19T02:02:39.694Z,12.98
2023-01-19T02:05:11.311Z,11.27
2023-01-19T02:08:04.040Z,11.32
2023-01-19T02:10:50.149Z,12.13
2023-01-19T02:13:20.558Z,11.25
2023-01-19T02:15:49.928Z,11.75
2023-01-19T02:18:17.039Z,11.73
2023-01-19T02:20:52.207Z,10.50
2023-01-19T02:23:30.146Z,10.50
2023-01-19T02:25:56.637Z,12.07
2023-01-19T02:28:23.225Z,10.52
2023-01-19T02:30:49.731Z,11.73
2023-01-19T02:33:16.287Z,11.77
2023-01-19T02:35:44.612Z,10.55
2023-01-19T02:38:12.686Z,12.35
2023-01-19T02:40:42.456Z,10.73
2023-01-19T02:43:09.377Z,10.88
2023-01-19T02:45:37.618Z,11.20
2023-01-19T02:48:05.769Z,9.60
2023-01-19T02:50:49.195Z,9.98
2023-01-19T02:53:29.835Z,11.10
2023-01-19T02:56:33.590Z,10.65
2023-01-19T02:59:12.177Z,10.77
2023-01-19T03:01:56.384Z,10.85
2023-01-19T03:04:25.856Z,11.45
2023-01-19T03:07:00.625Z,10.68
2023-01-19T03:09:41.428Z,11.68
2023-01-19T03:12:35.387Z,11.52
2023-01-19T03:15:15.658Z,10.07
2023-01-19T03:17:44.055Z,11.05
2023-01-19T03:20:13.636Z,11.38
2023-01-19T03:22:40.854Z,10.65
2023-01-19T03:25:08.538Z,10.68
2023-01-19T03:27:42.053Z,10.63
2023-01-19T03:30:13.912Z,12.32
2023-01-19T03:32:47.202Z,11.85
2023-01-19T03:35:16.573Z,11.07
2023-01-19T03:37:46.448Z,12.23
2023-01-19T03:40:13.164Z,11.35
2023-01-19T03:42:41.075Z,11.18
2023-01-19T03:45:09.039Z,11.80
2023-01-19T03:47:36.284Z,10.18
2023-01-19T03:50:06.070Z,11.27
2023-01-19T03:52:33.591Z,10.60
2023-01-19T03:55:01.384Z,10.77
2023-01-19T03:57:27.910Z,12.05
2023-01-19T03:59:54.436Z,11.60
2023-01-19T04:02:20.923Z,10.32
2023-01-19T04:04:47.772Z,11.05
2023-01-19T04:07:14.331Z,10.82
2023-01-19T04:09:41.062Z,10.25
2023-01-19T04:12:07.721Z,10.05
2023-01-19T04:14:34.224Z,13.98
2023-01-19T04:17:00.683Z,8.77
2023-01-19T04:19:27.226Z,9.85
2023-01-19T04:21:53.773Z,9.23
2023-01-19T04:24:20.251Z,10.05
2023-01-19T04:26:46.737Z,10.52
2023-01-19T04:29:14.303Z,9.98
2023-01-19T04:31:41.128Z,9.23
2023-01-19T04:34:07.622Z,8.18
2023-01-19T04:36:34.127Z,8.20
2023-01-19T04:39:00.621Z,9.40
2023-01-19T04:41:27.144Z,8.80
2023-01-19T04:43:53.677Z,7.95
2023-01-19T04:46:20.242Z,7.88
2023-01-19T04:48:46.750Z,8.07
2023-01-19T04:51:13.226Z,7.65
2023-01-19T04:53:39.832Z,7.25
2023-01-19T04:56:06.559Z,8.02
2023-01-19T04:58:33.115Z,8.15
2023-01-19T05:01:32.302Z,7.68
2023-01-19T05:03:59.663Z,7.53
2023-01-19T05:06:26.308Z,7.55
2023-01-19T05:08:52.949Z,8.05
2023-01-19T05:11:19.430Z,8.52
2023-01-19T05:13:45.913Z,8.68
2023-01-19T05:16:13.980Z,8.02
2023-01-19T05:18:40.510Z,8.50
2023-01-19T05:21:07.492Z,9.63
2023-01-19T05:23:34.358Z,8.82
2023-01-19T05:26:03.512Z,9.75
2023-01-19T05:28:31.635Z,9.20
2023-01-19T05:30:58.444Z,9.38
2023-01-19T05:33:25.496Z,8.98
2023-01-19T05:35:53.531Z,9.60
2023-01-19T05:38:29.480Z,10.32
2023-01-19T05:41:00.930Z,10.25
2023-01-19T05:43:27.372Z,10.88
2023-01-19T05:45:53.843Z,10.77
2023-01-19T05:48:20.405Z,10.82
2023-01-19T05:50:49.386Z,11.07
2023-01-19T05:53:17.004Z,11.32
2023-01-19T05:55:43.623Z,13.15
2023-01-19T05:58:10.168Z,12.38
2023-01-19T06:00:36.865Z,11.73
2023-01-19T06:03:04.003Z,11.38
2023-01-19T06:05:30.854Z,12.98
2023-01-19T06:07:57.416Z,12.45
2023-01-19T06:10:24.036Z,12.57
2023-01-19T06:12:52.467Z,13.38
2023-01-19T06:15:19.295Z,12.82
2023-01-19T06:17:45.911Z,12.63
2023-01-19T06:20:14.038Z,13.02
2023-01-19T06:22:40.613Z,13.43
2023-01-19T06:25:07.395Z,12.32
2023-01-19T06:27:33.902Z,12.77
2023-01-19T06:30:00.371Z,13.52
2023-01-19T06:32:26.883Z,14.52
2023-01-19T06:34:54.196Z,12.90
2023-01-19T06:37:20.967Z,13.77
2023-01-19T06:39:47.507Z,14.30
2023-01-19T06:42:14.350Z,13.95
2023-01-19T06:44:47.189Z,13.40
2023-01-19T06:47:16.339Z,12.57
2023-01-19T06:49:43.597Z,13.25
2023-01-19T06:52:18.349Z,13.18
2023-01-19T06:54:45.467Z,13.75
2023-01-19T06:57:13.251Z,14.35
2023-01-19T06:59:39.915Z,14.98
2023-01-19T07:02:26.461Z,13.93
2023-01-19T07:04:53.158Z,13.68
2023-01-19T07:07:19.649Z,13.18
2023-01-19T07:09:46.083Z,13.55
2023-01-19T07:12:14.547Z,13.18
2023-01-19T07:14:41.077Z,13.15
2023-01-19T07:17:07.803Z,12.43
2023-01-19T07:19:35.329Z,13.27
2023-01-19T07:22:03.138Z,13.27
2023-01-19T07:24:34.165Z,12.85
2023-01-19T07:27:00.847Z,11.25
2023-01-19T07:29:27.293Z,12.88
2023-01-19T07:31:56.793Z,13.30
2023-01-19T07:34:23.397Z,12.63
2023-01-19T07:36:49.899Z,12.02
2023-01-19T07:39:16.422Z,13.15
2023-01-19T07:41:42.877Z,13.00
2023-01-19T07:44:09.626Z,11.18
2023-01-19T07:46:36.198Z,12.77
2023-01-19T07:49:02.692Z,12.27
2023-01-19T07:51:29.214Z,12.63
2023-01-19T07:53:55.705Z,11.77
2023-01-19T07:56:23.413Z,12.40
2023-01-19T07:58:52.264Z,12.02
2023-01-19T08:01:18.899Z,13.40
2023-01-19T08:03:48.051Z,13.57
2023-01-19T08:06:28.391Z,13.90
2023-01-19T08:08:54.984Z,13.32
2023-01-19T08:11:21.451Z,14.10
2023-01-19T08:13:47.981Z,14.57
2023-01-19T08:16:14.482Z,13.90
2023-01-19T08:18:41.040Z,13.13
2023-01-19T08:21:07.891Z,14.20
2023-01-19T08:23:34.454Z,14.43
2023-01-19T08:26:01.439Z,14.13
2023-01-19T08:28:27.940Z,12.48
2023-01-19T08:30:54.594Z,14.20
2023-01-19T08:33:23.202Z,13.40
2023-01-19T08:35:54.210Z,13.38
2023-01-19T08:38:20.748Z,13.15
2023-01-19T08:40:48.645Z,14.27
2023-01-19T08:43:17.160Z,12.80
2023-01-19T08:45:48.142Z,14.75
2023-01-19T08:48:16.446Z,15.95
2023-01-19T08:50:46.528Z,14.43
2023-01-19T08:53:13.598Z,13.57
2023-01-19T08:55:40.621Z,13.43
2023-01-19T08:58:08.810Z,12.75
2023-01-19T09:00:40.182Z,11.20
2023-01-19T09:03:09.227Z,10.93
2023-01-19T09:05:38.638Z,11.25
2023-01-19T09:08:08.378Z,11.40
2023-01-19T09:10:36.218Z,10.18
2023-01-19T09:13:08.115Z,10.32
2023-01-19T09:15:37.527Z,10.75
2023-01-19T09:18:07.044Z,10.00
2023-01-19T09:20:36.017Z,10.70
2023-01-19T09:23:02.512Z,10.77
2023-01-19T09:25:28.963Z,10.15
2023-01-19T09:27:56.182Z,10.25
2023-01-19T09:30:22.766Z,10.23
2023-01-19T09:32:49.202Z,10.50
2023-01-19T09:35:15.912Z,10.65
2023-01-19T09:37:46.317Z,9.77
2023-01-19T09:40:13.921Z,10.68
2023-01-19T09:42:48.167Z,9.88
2023-01-19T09:45:34.303Z,9.88
2023-01-19T09:48:02.489Z,10.15
2023-01-19T09:50:36.477Z,11.65
2023-01-19T09:53:13.773Z,9.80
2023-01-19T09:55:42.566Z,10.18
2023-01-19T09:58:18.977Z,10.48
2023-01-19T10:00:56.100Z,9.52
2023-01-19T10:03:24.000Z,9.07
2023-01-19T10:06:01.368Z,8.32
2023-01-19T10:08:44.241Z,8.15
2023-01-19T10:11:51.271Z,7.78
2023-01-19T10:14:49.186Z,9.57
2023-01-19T10:17:41.966Z,8.90
2023-01-19T10:20:17.945Z,8.40
2023-01-19T10:22:48.654Z,8.00
2023-01-19T10:25:19.837Z,7.88
2023-01-19T10:27:46.736Z,8.40
2023-01-19T10:30:23.799Z,9.50
2023-01-19T10:32:51.322Z,7.95
2023-01-19T10:35:24.558Z,8.85
2023-01-19T10:37:54.594Z,8.93
2023-01-19T10:40:36.317Z,9.07
2023-01-19T10:43:32.324Z,7.65
2023-01-19T10:45:58.934Z,8.65
2023-01-19T10:48:25.599Z,9.15
2023-01-19T10:51:03.280Z,8.27
2023-01-19T10:53:29.881Z,8.07
2023-01-19T10:56:14.434Z,7.10
2023-01-19T11:01:17.652Z,7.00
2023-01-19T11:03:45.126Z,5.38
2023-01-19T11:06:15.401Z,6.72
2023-01-19T11:08:44.285Z,6.97
2023-01-19T11:11:12.446Z,6.93
2023-01-19T11:13:43.042Z,6.65
2023-01-19T11:16:24.692Z,7.05
2023-01-19T11:18:56.477Z,6.97
2023-01-19T11:21:26.623Z,6.80
2023-01-19T11:23:56.564Z,7.07
2023-01-19T11:26:43.424Z,6.75
2023-01-19T11:29:25.949Z,6.20
2023-01-19T11:31:54.302Z,6.57
2023-01-19T11:34:32.986Z,7.45
2023-01-19T11:37:03.773Z,5.80
2023-01-19T11:39:44.822Z,6.47
2023-01-19T11:42:13.030Z,6.38
2023-01-19T11:44:46.725Z,6.82
2023-01-19T11:47:28.285Z,6.40
2023-01-19T11:50:01.391Z,6.38
2023-01-19T11:52:42.986Z,6.50
2023-01-19T11:55:30.846Z,6.80
2023-01-19T11:57:59.751Z,6.05
2023-01-19T12:00:42.795Z,6.88
2023-01-19T12:03:32.642Z,6.60
2023-01-19T12:06:04.259Z,5.22
2023-01-19T12:08:36.443Z,5.40
2023-01-19T12:11:05.281Z,5.63
2023-01-19T12:13:33.447Z,6.32
2023-01-19T12:16:07.177Z,6.25
2023-01-19T12:18:39.604Z,6.35
2023-01-19T12:21:06.381Z,6.47
2023-01-19T12:23:39.656Z,7.15
2023-01-19T12:26:24.194Z,8.37
2023-01-19T12:28:52.513Z,8.10
2023-01-19T12:31:21.994Z,6.75
2023-01-19T12:33:49.241Z,7.72
2023-01-19T12:36:32.144Z,7.13
2023-01-19T12:39:04.750Z,7.43
2023-01-19T12:41:32.895Z,7.40
2023-01-19T12:44:11.349Z,8.05
2023-01-19T12:46:41.047Z,7.47
2023-01-19T12:49:17.941Z,8.20
2023-01-19T12:51:45.944Z,5.82
2023-01-19T12:54:41.850Z,6.30
2023-01-19T12:57:19.140Z,5.50
2023-01-19T12:59:45.779Z,6.10
2023-01-19T13:02:18.481Z,6.00
2023-01-19T13:05:06.710Z,4.78
2023-01-19T13:08:08.290Z,4.93
2023-01-19T13:11:02.821Z,4.88
2023-01-19T13:13:53.553Z,4.85
2023-01-19T13:16:20.225Z,4.72
2023-01-19T13:18:53.924Z,4.97
2023-01-19T13:21:35.349Z,4.13
2023-01-19T13:24:15.901Z,4.82
2023-01-19T13:26:54.896Z,4.75
2023-01-19T13:29:47.525Z,5.13
2023-01-19T13:32:17.580Z,5.22
2023-01-19T13:34:49.666Z,4.75
2023-01-19T13:37:19.947Z,5.70
2023-01-19T13:39:50.101Z,4.53
2023-01-19T13:42:29.306Z,4.57
2023-01-19T13:44:59.936Z,5.53
2023-01-19T13:47:50.780Z,5.50
2023-01-19T13:50:23.700Z,5.47
2023-01-19T13:52:51.789Z,5.53
2023-01-19T13:55:20.402Z,5.00
2023-01-19T13:57:49.574Z,6.07
2023-01-19T14:00:18.018Z,5.88
2023-01-19T14:03:17.898Z,7.47
2023-01-19T14:05:45.172Z,5.05
2023-01-19T14:08:14.943Z,4.82
2023-01-19T14:10:45.980Z,4.90
2023-01-19T14:13:25.169Z,4.93
2023-01-19T14:15:56.971Z,4.82
2023-01-19T14:18:30.095Z,5.97
2023-01-19T14:21:01.246Z,8.77
2023-01-19T14:23:47.769Z,5.13
2023-01-19T14:26:41.635Z,4.63
2023-01-19T14:29:32.717Z,4.33
2023-01-19T14:32:27.790Z,4.93
2023-01-19T14:37:36.018Z,5.10
2023-01-19T14:40:10.695Z,5.40
2023-01-19T14:42:44.193Z,5.35
2023-01-19T14:45:26.692Z,5.85
2023-01-19T14:48:06.513Z,5.13
2023-01-19T14:50:37.602Z,5.20
2023-01-19T14:53:07.306Z,6.15
2023-01-19T14:55:38.411Z,5.40
2023-01-19T14:58:17.557Z,6.35
2023-01-19T15:00:45.460Z,6.57
2023-01-19T15:03:12.113Z,5.00
2023-01-19T15:05:41.224Z,4.55
2023-01-19T15:08:10.991Z,4.35
2023-01-19T15:10:37.550Z,5.07
2023-01-19T15:13:04.854Z,5.03
2023-01-19T15:15:33.667Z,4.80
2023-01-19T15:18:02.724Z,5.80
2023-01-19T15:20:29.410Z,5.82
2023-01-19T15:22:55.909Z,5.82
2023-01-19T15:25:27.394Z,5.25
2023-01-19T15:27:58.159Z,9.98
2023-01-19T15:30:31.135Z,6.13
2023-01-19T15:32:58.900Z,6.00
2023-01-19T15:35:26.446Z,6.45
2023-01-19T15:37:53.825Z,6.53
2023-01-19T15:40:22.638Z,6.10
2023-01-19T15:42:50.075Z,5.82
2023-01-19T15:45:41.514Z,5.63
2023-01-19T15:48:11.015Z,5.95
2023-01-19T15:50:40.988Z,6.00
2023-01-19T15:53:11.764Z,5.93
2023-01-19T15:55:38.244Z,6.20
2023-01-19T15:58:04.733Z,6.30
2023-01-19T16:00:33.199Z,6.00
2023-01-19T16:03:01.850Z,6.22
2023-01-19T16:05:41.799Z,5.75
2023-01-19T16:08:10.210Z,6.93
2023-01-19T16:10:36.731Z,6.13
2023-01-19T16:13:04.071Z,7.03
2023-01-19T16:15:30.590Z,7.50
2023-01-19T16:17:57.157Z,6.15
2023-01-19T16:20:23.741Z,6.82
2023-01-19T16:22:50.226Z,6.55
2023-01-19T16:25:16.743Z,6.93
2023-01-19T16:27:43.205Z,7.63
2023-01-19T16:30:11.919Z,7.45
2023-01-19T16:32:38.756Z,7.30
2023-01-19T16:35:05.693Z,6.70
2023-01-19T16:37:32.293Z,8.90
2023-01-19T16:39:58.806Z,8.13
2023-01-19T16:42:25.437Z,8.30
2023-01-19T16:44:51.956Z,8.05
2023-01-19T16:47:18.495Z,7.10
2023-01-19T16:49:44.956Z,7.55
2023-01-19T16:52:11.866Z,7.40
2023-01-19T16:54:42.037Z,10.82
2023-01-19T16:57:10.007Z,10.82
2023-01-19T16:59:37.159Z,9.60
2023-01-19T17:02:03.781Z,9.13
2023-01-19T17:04:30.535Z,12.07
2023-01-19T17:06:57.117Z,11.93
2023-01-19T17:09:23.591Z,10.73
2023-01-19T17:11:50.191Z,10.55
2023-01-19T17:14:21.732Z,9.63
2023-01-19T17:16:48.925Z,10.50
2023-01-19T17:19:20.066Z,10.48
2023-01-19T17:21:48.813Z,10.50
2023-01-19T17:24:16.206Z,9.90
2023-01-19T17:26:45.749Z,10.40
2023-01-19T17:29:12.335Z,10.75
2023-01-19T17:31:38.948Z,10.13
2023-01-19T17:34:05.661Z,10.55
2023-01-19T17:36:32.911Z,9.65
2023-01-19T17:39:03.947Z,10.43
2023-01-19T17:41:34.967Z,9.27
2023-01-19T17:44:03.392Z,10.25
2023-01-19T17:46:30.304Z,10.32
2023-01-19T17:48:59.994Z,10.52
2023-01-19T17:51:27.504Z,10.82
2023-01-19T17:53:54.519Z,10.98
2023-01-19T17:56:26.164Z,9.73
2023-01-19T17:58:52.852Z,10.35
2023-01-19T18:01:32.020Z,9.73
2023-01-19T18:03:59.646Z,10.00
2023-01-19T18:06:26.290Z,10.20
2023-01-19T18:08:52.968Z,11.70
2023-01-19T18:11:21.068Z,12.13
2023-01-19T18:13:49.157Z,12.30
2023-01-19T18:16:19.134Z,11.90
2023-01-19T18:18:45.682Z,10.30
2023-01-19T18:21:14.197Z,9.50
2023-01-19T18:23:43.246Z,9.50
2023-01-19T18:26:16.002Z,10.13
2023-01-19T18:28:42.470Z,10.82
2023-01-19T18:31:14.716Z,10.57
2023-01-19T18:33:42.064Z,10.35
2023-01-19T18:36:26.416Z,9.63
2023-01-19T18:38:53.603Z,9.27
2023-01-19T18:41:21.431Z,8.85
2023-01-19T18:43:48.696Z,10.20
2023-01-19T18:46:16.257Z,8.95
2023-01-19T18:48:42.901Z,9.73
2023-01-19T18:51:11.914Z,9.45
2023-01-19T18:53:38.700Z,9.50
2023-01-19T18:56:06.543Z,9.25
2023-01-19T18:58:33.915Z,8.70
2023-01-19T19:01:01.143Z,9.60
2023-01-19T19:03:28.310Z,8.90
2023-01-19T19:05:55.841Z,8.93
2023-01-19T19:08:22.838Z,12.65
2023-01-19T19:10:49.360Z,9.82
2023-01-19T19:13:17.247Z,11.80
2023-01-19T19:15:46.622Z,11.05
2023-01-19T19:18:13.946Z,10.20
2023-01-19T19:20:44.396Z,10.90
2023-01-19T19:23:11.785Z,11.88
2023-01-19T19:25:38.700Z,11.20
2023-01-19T19:28:05.394Z,9.68
2023-01-19T19:30:34.377Z,21.58
2023-01-19T19:33:01.068Z,9.48
2023-01-19T19:35:27.752Z,10.27
2023-01-19T19:37:57.379Z,9.65
2023-01-19T19:40:26.207Z,9.25
2023-01-19T19:42:53.391Z,8.65
2023-01-19T19:45:20.273Z,8.38
2023-01-19T19:47:46.796Z,8.88
2023-01-19T19:50:14.231Z,10.43
2023-01-19T19:52:41.685Z,9.40
2023-01-19T19:55:09.852Z,11.73
2023-01-19T19:57:36.819Z,10.82
2023-01-19T20:00:05.159Z,12.15
2023-01-19T20:02:36.585Z,11.50
2023-01-19T20:05:03.690Z,13.20
2023-01-19T20:07:30.317Z,10.88
2023-01-19T20:09:59.439Z,9.07
2023-01-19T20:12:26.162Z,8.90
2023-01-19T20:14:52.728Z,8.50
2023-01-19T20:17:20.680Z,7.90
2023-01-19T20:19:48.928Z,7.30
2023-01-19T20:22:15.969Z,9.00
2023-01-19T20:24:42.540Z,8.70
2023-01-19T20:27:09.105Z,7.70
2023-01-19T20:29:35.639Z,7.90
2023-01-19T20:32:02.209Z,8.65
2023-01-19T20:34:33.180Z,8.75
2023-01-19T20:37:01.560Z,8.77
2023-01-19T20:39:30.035Z,9.18
2023-01-19T20:41:56.754Z,8.38
2023-01-19T20:44:25.177Z,8.93
2023-01-19T20:46:52.964Z,9.93
2023-01-19T20:49:20.101Z,9.48
2023-01-19T20:51:47.035Z,9.07
2023-01-19T20:54:15.732Z,8.93
2023-01-19T20:56:42.544Z,9.77
2023-01-19T20:59:10.251Z,9.90
2023-01-19T21:01:37.453Z,9.88
2023-01-19T21:04:04.260Z,11.10
2023-01-19T21:06:31.380Z,9.70
2023-01-19T21:08:58.046Z,10.07
2023-01-19T21:11:24.880Z,10.05
2023-01-19T21:13:55.593Z,10.73
2023-01-19T21:16:24.045Z,8.80
2023-01-19T21:18:50.640Z,10.35
2023-01-19T21:21:29.319Z,8.88
2023-01-19T21:23:57.559Z,11.20
2023-01-19T21:26:24.202Z,8.43
2023-01-19T21:28:50.816Z,9.02
2023-01-19T21:31:17.487Z,8.77
2023-01-19T21:33:44.080Z,8.65
2023-01-19T21:36:11.095Z,8.57
2023-01-19T21:38:38.853Z,8.75
2023-01-19T21:41:12.486Z,8.85
2023-01-19T21:43:41.640Z,8.25
2023-01-19T21:46:16.978Z,8.52
2023-01-19T21:48:43.853Z,8.23
2023-01-19T21:51:10.442Z,8.60
2023-01-19T21:53:37.214Z,8.77
2023-01-19T21:56:09.508Z,8.48
2023-01-19T21:58:36.132Z,9.70
2023-01-19T22:01:06.821Z,9.68
2023-01-19T22:03:33.411Z,9.27
2023-01-19T22:06:08.311Z,9.35
2023-01-19T22:08:35.216Z,8.77
2023-01-19T22:11:05.125Z,9.23
2023-01-19T22:13:32.540Z,9.57
2023-01-19T22:16:00.972Z,8.90
2023-01-19T22:18:27.557Z,9.13
2023-01-19T22:20:54.226Z,9.48
2023-01-19T22:23:20.734Z,8.60
2023-01-19T22:25:47.215Z,7.80
2023-01-19T22:28:13.700Z,8.48
2023-01-19T22:30:40.267Z,7.72
2023-01-19T22:33:06.788Z,10.90
2023-01-19T22:35:33.259Z,8.10
2023-01-19T22:37:59.696Z,8.70
2023-01-19T22:40:26.178Z,9.90
2023-01-19T22:42:52.622Z,11.23
2023-01-19T22:45:19.165Z,9.52
2023-01-19T22:47:46.247Z,9.88
2023-01-19T22:50:12.709Z,9.07
2023-01-19T22:52:39.195Z,8.27
2023-01-19T22:55:06.039Z,8.73
2023-01-19T22:57:35.677Z,8.73
2023-01-19T23:00:06.750Z,8.93
2023-01-19T23:02:33.246Z,9.68
2023-01-19T23:04:59.806Z,9.07
2023-01-19T23:07:26.279Z,8.70
2023-01-19T23:09:52.737Z,9.98
2023-01-19T23:12:19.180Z,10.82
2023-01-19T23:14:45.649Z,9.82
2023-01-19T23:17:12.104Z,9.32
2023-01-19T23:19:38.546Z,9.05
2023-01-19T23:22:05.118Z,9.52
2023-01-19T23:24:31.564Z,9.00
2023-01-19T23:26:58.019Z,9.35
2023-01-19T23:29:24.528Z,9.18
2023-01-19T23:31:53.312Z,9.00
2023-01-19T23:34:19.757Z,9.55
2023-01-19T23:36:46.271Z,9.25
2023-01-19T23:39:16.013Z,9.13
2023-01-19T23:41:42.545Z,8.77
2023-01-19T23:44:09.400Z,10.23
2023-01-19T23:46:35.971Z,9.40
2023-01-19T23:49:02.537Z,9.00
2023-01-19T23:51:31.425Z,9.55
2023-01-19T23:53:59.468Z,9.52
2023-01-19T23:56:29.627Z,10.25
2023-01-19T23:59:01.582Z,10.20
